Time;durP1;ratioP1;P1;durP2;ratioP2;P2;SDS_P1;SDS_P2;PMS_P1;PMS_P2;Temp;Humidity;BMP_temperature;BMP_pressure;BME280_temperature;BME280_humidity;BME280_pressure;Samples;Min_cycle;Max_cycle;Signal;HPM_P1;HPM_P2
2023/10/07 00:01:16;;;;;;;1.55;0.82;;;16.60;99.90;;;;;;5101942;28;20051;-80
2023/10/07 00:03:43;;;;;;;1.60;0.98;;;16.70;99.90;;;;;;5067961;28;20063;-80
2023/10/07 00:06:11;;;;;;;1.30;0.98;;;16.70;99.90;;;;;;5099621;28;20048;-79
2023/10/07 00:08:38;;;;;;;1.80;1.00;;;16.70;99.90;;;;;;5083016;28;20039;-80
2023/10/07 00:11:11;;;;;;;2.13;1.08;;;16.70;99.90;;;;;;5099993;28;20054;-80
2023/10/07 00:13:41;;;;;;;1.55;0.80;;;16.80;99.90;;;;;;5084162;28;20047;-79
2023/10/07 00:16:17;;;;;;;2.17;0.82;;;16.80;99.90;;;;;;5099923;28;20103;-80
2023/10/07 00:18:45;;;;;;;1.65;1.00;;;16.80;99.90;;;;;;5084575;28;20524;-80
2023/10/07 00:21:24;;;;;;;1.63;0.90;;;16.90;99.90;;;;;;5087134;28;20259;-80
2023/10/07 00:23:53;;;;;;;2.20;1.05;;;16.80;99.90;;;;;;5103176;28;20086;-80
2023/10/07 00:26:19;;;;;;;1.58;0.90;;;16.80;99.90;;;;;;5103260;28;20151;-80
2023/10/07 00:28:59;;;;;;;1.00;0.70;;;16.90;99.90;;;;;;5086773;28;20039;-80
2023/10/07 00:31:27;;;;;;;1.17;0.80;;;16.90;99.90;;;;;;5103521;28;20497;-80
2023/10/07 00:39:08;;;;;;;0.80;0.60;;;16.90;99.90;;;;;;5102993;28;20126;-80
2023/10/07 00:41:45;;;;;;;1.33;0.75;;;16.90;99.90;;;;;;5085891;28;20462;-80
2023/10/07 00:44:17;;;;;;;1.08;0.70;;;16.90;99.90;;;;;;5103987;28;20050;-80
2023/10/07 00:46:49;;;;;;;1.02;0.63;;;16.90;99.90;;;;;;5087841;28;20047;-80
2023/10/07 00:49:22;;;;;;;1.40;0.60;;;16.90;99.90;;;;;;5087467;28;20418;-80
2023/10/07 00:51:51;;;;;;;1.42;0.70;;;16.90;99.90;;;;;;5103604;28;20293;-80
2023/10/07 00:59:35;;;;;;;0.82;0.65;;;16.80;99.90;;;;;;5088596;28;20108;-80
2023/10/07 01:02:06;;;;;;;1.33;0.50;;;16.80;99.90;;;;;;5069851;28;20048;-82
2023/10/07 01:04:40;;;;;;;0.98;0.63;;;16.80;99.90;;;;;;5102940;28;20055;-80
2023/10/07 01:07:09;;;;;;;1.45;0.65;;;16.70;99.90;;;;;;5087235;28;20388;-80
2023/10/07 01:09:36;;;;;;;0.57;0.40;;;16.70;99.90;;;;;;5085379;28;20075;-80
2023/10/07 01:12:03;;;;;;;1.02;0.70;;;16.70;99.90;;;;;;5086533;28;20047;-80
2023/10/07 01:14:34;;;;;;;1.20;0.75;;;16.60;99.90;;;;;;5069569;28;20047;-80
2023/10/07 01:17:03;;;;;;;1.23;0.57;;;16.50;99.90;;;;;;5070826;28;20305;-80
2023/10/07 01:19:36;;;;;;;1.27;0.68;;;16.50;99.90;;;;;;5069917;28;20127;-80
2023/10/07 01:22:09;;;;;;;1.17;0.77;;;16.50;99.90;;;;;;5102532;28;20056;-80
2023/10/07 01:27:18;;;;;;;1.13;0.70;;;16.40;99.90;;;;;;5102274;28;20043;-80
2023/10/07 01:29:49;;;;;;;0.90;0.52;;;16.40;99.90;;;;;;5072469;28;20062;-80
2023/10/07 01:32:17;;;;;;;1.38;0.70;;;16.40;99.90;;;;;;5068832;28;20052;-80
2023/10/07 01:34:55;;;;;;;1.27;0.60;;;16.40;99.90;;;;;;5085938;28;20043;-80
2023/10/07 01:37:22;;;;;;;1.05;0.60;;;16.30;99.90;;;;;;5068795;28;20144;-80
2023/10/07 01:39:52;;;;;;;1.60;0.95;;;16.30;99.90;;;;;;5091528;28;20465;-80
2023/10/07 01:42:37;;;;;;;1.95;0.82;;;16.30;99.90;;;;;;5087549;28;20047;-79
2023/10/07 01:45:34;;;;;;;1.20;0.70;;;16.30;99.90;;;;;;5072127;28;20196;-80
2023/10/07 01:47:55;;;;;;;1.63;1.38;;;16.20;99.90;;;;;;5084983;28;20098;-80
2023/10/07 01:50:23;;;;;;;1.48;0.80;;;16.20;99.90;;;;;;5062213;28;20083;-81
2023/10/07 01:52:55;;;;;;;1.27;0.77;;;16.20;99.90;;;;;;5065545;28;20060;-81
2023/10/07 01:55:27;;;;;;;1.08;0.80;;;16.20;1.00;;;;;;5082251;28;20052;-80
2023/10/07 01:57:54;;;;;;;1.48;1.05;;;16.20;1.00;;;;;;5084013;28;20044;-81
2023/10/07 02:03:13;;;;;;;1.58;0.95;;;16.20;1.00;;;;;;5103888;28;20051;-81
2023/10/07 02:05:41;;;;;;;1.95;1.13;;;16.20;1.00;;;;;;5078391;28;20422;-81
2023/10/07 02:08:12;;;;;;;1.70;1.08;;;16.20;1.00;;;;;;5083817;28;20051;-81
2023/10/07 02:10:41;;;;;;;1.17;0.80;;;16.20;1.00;;;;;;5103192;28;20100;-81
2023/10/07 02:13:12;;;;;;;1.55;0.90;;;16.20;99.90;;;;;;5086798;28;20124;-81
2023/10/07 02:15:42;;;;;;;1.00;0.70;;;16.20;99.90;;;;;;5103666;28;20055;-81
2023/10/07 02:18:15;;;;;;;1.27;0.70;;;16.20;99.90;;;;;;5086632;28;20469;-81
2023/10/07 02:20:50;;;;;;;1.00;0.60;;;16.20;99.90;;;;;;5103736;28;20363;-80
2023/10/07 02:23:22;;;;;;;1.60;1.02;;;16.20;99.90;;;;;;5086350;28;20052;-80
2023/10/07 02:25:49;;;;;;;1.77;1.00;;;16.20;99.90;;;;;;5103059;28;20467;-81
2023/10/07 02:28:21;;;;;;;1.90;1.15;;;16.20;99.90;;;;;;5103481;28;20051;-81
2023/10/07 02:31:01;;;;;;;1.17;0.85;;;16.20;99.90;;;;;;5103101;28;20073;-81
2023/10/07 02:33:28;;;;;;;1.27;0.93;;;16.20;99.90;;;;;;5104591;28;20083;-81
2023/10/07 02:35:57;;;;;;;1.85;0.93;;;16.20;99.90;;;;;;5086246;28;20048;-81
2023/10/07 02:38:29;;;;;;;1.65;0.90;;;16.20;99.90;;;;;;5102865;28;20055;-80
2023/10/07 02:41:06;;;;;;;2.40;1.27;;;16.20;99.90;;;;;;5104348;28;20051;-81
2023/10/07 02:43:43;;;;;;;1.77;1.17;;;16.20;99.90;;;;;;5103920;28;20047;-81
2023/10/07 02:46:22;;;;;;;1.60;0.90;;;16.20;99.90;;;;;;5103023;28;20050;-81
2023/10/07 02:48:49;;;;;;;2.45;1.05;;;16.20;99.90;;;;;;5088277;28;20051;-81
2023/10/07 02:51:18;;;;;;;1.58;1.13;;;16.30;99.90;;;;;;5086261;28;20127;-81
2023/10/07 02:53:45;;;;;;;3.45;1.20;;;16.30;99.90;;;;;;5103250;28;20055;-81
2023/10/07 02:56:18;;;;;;;1.92;0.98;;;16.20;99.90;;;;;;5103718;28;20392;-81
2023/10/07 02:58:59;;;;;;;1.35;0.90;;;16.30;99.90;;;;;;5086807;28;20047;-81
2023/10/07 03:01:28;;;;;;;1.83;1.05;;;16.30;99.90;;;;;;5087928;28;20108;-81
2023/10/07 03:03:55;;;;;;;1.50;0.95;;;16.30;99.90;;;;;;5104431;28;20126;-81
2023/10/07 03:06:28;;;;;;;1.05;0.60;;;16.30;99.90;;;;;;5102629;28;20071;-81
2023/10/07 03:09:00;;;;;;;1.33;0.70;;;16.20;96.10;;;;;;5102345;28;20162;-81
2023/10/07 03:11:50;;;;;;;1.43;0.87;;;16.20;90.50;;;;;;5086112;28;20088;-81
2023/10/07 03:14:25;;;;;;;1.10;0.80;;;16.20;86.60;;;;;;5089684;28;20043;-82
2023/10/07 03:16:59;;;;;;;1.73;1.05;;;16.20;90.00;;;;;;5103116;28;20062;-80
2023/10/07 03:19:33;;;;;;;1.10;0.73;;;16.10;95.00;;;;;;5102916;28;20396;-80
2023/10/07 03:22:09;;;;;;;1.70;0.88;;;16.10;99.90;;;;;;5103985;28;20059;-81
2023/10/07 03:24:42;;;;;;;1.23;0.93;;;16.10;99.90;;;;;;5101403;28;20097;-81
2023/10/07 03:27:20;;;;;;;1.48;0.98;;;16.10;99.90;;;;;;5102725;28;20288;-81
2023/10/07 03:29:59;;;;;;;1.25;0.73;;;16.00;99.90;;;;;;5087866;28;20552;-81
2023/10/07 03:32:32;;;;;;;1.15;0.80;;;16.00;99.90;;;;;;5088889;28;20083;-81
2023/10/07 03:34:59;;;;;;;2.75;0.90;;;16.00;99.90;;;;;;5072050;28;20054;-81
2023/10/07 03:37:27;;;;;;;2.58;1.13;;;15.90;99.90;;;;;;5071263;28;20079;-81
2023/10/07 03:40:25;;;;;;;1.88;0.93;;;15.90;99.90;;;;;;5104502;28;20462;-81
2023/10/07 03:42:52;;;;;;;1.75;1.02;;;15.90;99.90;;;;;;5104591;28;20057;-81
2023/10/07 03:45:19;;;;;;;1.85;0.80;;;15.90;99.90;;;;;;5105464;28;20043;-81
2023/10/07 03:47:46;;;;;;;1.98;1.08;;;15.90;99.90;;;;;;5071084;28;20159;-81
2023/10/07 03:50:29;;;;;;;1.58;1.00;;;15.90;99.90;;;;;;5105682;28;20079;-81
2023/10/07 03:52:56;;;;;;;1.83;0.85;;;15.90;99.90;;;;;;5105835;28;20048;-81
2023/10/07 03:55:23;;;;;;;1.63;1.00;;;15.80;99.90;;;;;;5089544;28;20050;-81
2023/10/07 03:57:50;;;;;;;1.05;0.73;;;15.80;99.90;;;;;;5107954;28;20513;-81
2023/10/07 04:00:18;;;;;;;1.35;0.80;;;15.80;99.90;;;;;;5091428;28;20451;-81
2023/10/07 04:02:45;;;;;;;1.60;1.08;;;15.80;99.90;;;;;;5091792;28;20066;-81
2023/10/07 04:05:14;;;;;;;1.13;0.90;;;15.80;99.90;;;;;;5091356;28;20366;-81
2023/10/07 04:07:43;;;;;;;1.15;0.63;;;15.80;99.90;;;;;;5108247;28;20057;-81
2023/10/07 04:12:47;;;;;;;0.82;0.70;;;15.80;99.90;;;;;;5108106;28;20055;-81
2023/10/07 04:15:18;;;;;;;0.85;0.50;;;15.80;99.90;;;;;;5107838;28;20058;-81
2023/10/07 04:17:45;;;;;;;1.02;0.52;;;15.80;99.90;;;;;;5107880;28;20059;-81
2023/10/07 04:20:18;;;;;;;0.52;0.35;;;15.80;99.90;;;;;;5109047;28;20079;-81
2023/10/07 04:22:57;;;;;;;1.17;0.60;;;15.80;99.90;;;;;;5108062;28;20142;-81
2023/10/07 04:25:25;;;;;;;0.95;0.60;;;15.70;99.90;;;;;;5106650;28;20289;-80
2023/10/07 04:27:55;;;;;;;1.27;0.85;;;15.70;99.90;;;;;;5108211;28;20048;-81
2023/10/07 04:30:38;;;;;;;0.50;0.35;;;15.60;99.90;;;;;;5108601;28;20096;-81
2023/10/07 04:33:08;;;;;;;0.75;0.47;;;15.60;99.90;;;;;;5107880;28;20529;-81
2023/10/07 04:35:35;;;;;;;0.77;0.40;;;15.50;99.90;;;;;;5091006;28;20130;-81
2023/10/07 04:38:21;;;;;;;1.50;0.80;;;15.40;99.90;;;;;;5107584;28;20056;-81
2023/10/07 04:43:49;;;;;;;0.63;0.50;;;15.30;99.90;;;;;;5108442;28;20071;-81
2023/10/07 04:46:29;;;;;;;0.70;0.43;;;15.20;99.90;;;;;;5108543;28;20047;-81
2023/10/07 04:48:58;;;;;;;0.55;0.40;;;15.20;99.90;;;;;;5068717;28;20131;-81
2023/10/07 04:53:59;;;;;;;1.00;0.52;;;15.10;1.00;;;;;;5091059;28;20485;-81
2023/10/07 04:56:26;;;;;;;0.30;0.30;;;15.10;1.00;;;;;;5071067;28;20130;-81
2023/10/07 04:58:53;;;;;;;0.63;0.40;;;15.10;99.90;;;;;;5105411;28;20407;-81
2023/10/07 05:01:36;;;;;;;0.80;0.50;;;15.10;99.90;;;;;;5088174;28;20433;-81
2023/10/07 05:04:10;;;;;;;0.70;0.60;;;15.10;99.90;;;;;;5096253;28;20051;-80
2023/10/07 05:06:38;;;;;;;1.35;0.40;;;15.10;1.00;;;;;;5104136;28;20449;-81
2023/10/07 05:09:18;;;;;;;0.85;0.80;;;15.10;12.90;;;;;;5104616;28;20051;-81
2023/10/07 05:11:48;;;;;;;1.38;0.57;;;15.10;99.90;;;;;;5089108;28;20055;-81
2023/10/07 05:14:18;;;;;;;1.23;0.70;;;15.10;99.90;;;;;;5086684;28;20048;-80
2023/10/07 05:16:48;;;;;;;1.55;0.65;;;15.10;99.90;;;;;;5104496;28;20073;-81
2023/10/07 05:19:19;;;;;;;0.90;0.70;;;15.10;99.90;;;;;;5086664;28;20133;-81
2023/10/07 05:22:05;;;;;;;0.90;0.60;;;15.00;1.00;;;;;;5071631;28;20465;-81
2023/10/07 05:24:32;;;;;;;0.52;0.50;;;15.00;1.00;;;;;;5095472;28;20056;-81
2023/10/07 05:27:00;;;;;;;0.75;0.50;;;15.00;17.20;;;;;;5089287;28;20048;-80
2023/10/07 05:29:28;;;;;;;1.13;0.88;;;15.00;84.40;;;;;;5105441;28;20047;-81
2023/10/07 05:31:57;;;;;;;0.77;0.57;;;15.00;99.90;;;;;;5086497;28;20522;-81
2023/10/07 05:34:28;;;;;;;0.75;0.60;;;15.00;99.90;;;;;;5085894;28;20554;-80
2023/10/07 05:37:04;;;;;;;1.23;0.75;;;15.00;99.90;;;;;;5103078;28;20075;-80
2023/10/07 05:39:34;;;;;;;0.82;0.60;;;15.00;99.90;;;;;;5084620;28;20234;-80
2023/10/07 05:42:01;;;;;;;1.33;0.80;;;15.00;99.90;;;;;;5085850;28;20505;-80
2023/10/07 05:44:30;;;;;;;1.17;0.60;;;15.00;99.90;;;;;;5102558;28;20051;-80
2023/10/07 05:47:02;;;;;;;0.93;0.60;;;15.00;1.00;;;;;;5065969;28;20394;-81
2023/10/07 05:49:31;;;;;;;1.13;0.70;;;15.10;38.30;;;;;;5086054;28;20134;-80
2023/10/07 05:51:58;;;;;;;1.45;0.70;;;15.10;99.90;;;;;;5099536;28;20052;-80
2023/10/07 05:54:28;;;;;;;1.65;0.80;;;15.00;99.90;;;;;;5070699;28;20492;-80
2023/10/07 05:56:55;;;;;;;0.95;0.73;;;15.00;99.90;;;;;;5087173;28;20043;-80
2023/10/07 05:59:22;;;;;;;1.95;1.08;;;15.10;99.90;;;;;;5084871;28;20508;-80
2023/10/07 06:01:49;;;;;;;0.93;0.70;;;15.10;99.90;;;;;;5068844;28;20555;-81
2023/10/07 06:04:17;;;;;;;1.50;0.90;;;15.10;99.90;;;;;;5101476;28;20043;-80
2023/10/07 06:06:44;;;;;;;1.15;0.75;;;15.20;99.90;;;;;;5093528;28;20093;-80
2023/10/07 06:09:15;;;;;;;0.80;0.70;;;15.10;99.90;;;;;;5079220;28;20075;-80
2023/10/07 06:11:42;;;;;;;0.77;0.60;;;15.20;99.90;;;;;;5084928;28;20112;-80
2023/10/07 06:14:11;;;;;;;1.40;0.80;;;15.20;99.90;;;;;;5085875;28;20044;-81
2023/10/07 06:16:39;;;;;;;1.00;0.68;;;15.20;99.90;;;;;;5082888;28;20047;-81
2023/10/07 06:19:07;;;;;;;2.17;0.90;;;15.20;99.90;;;;;;5061735;28;20056;-80
2023/10/07 06:21:34;;;;;;;1.48;1.10;;;15.30;97.30;;;;;;5086645;28;20051;-81
2023/10/07 06:24:06;;;;;;;1.80;0.70;;;15.30;27.70;;;;;;5092124;27;20044;-80
2023/10/07 06:26:35;;;;;;;1.42;0.80;;;15.30;1.00;;;;;;5054544;28;20198;-80
2023/10/07 06:29:06;;;;;;;1.73;1.00;;;15.30;1.00;;;;;;5098017;28;20089;-81
2023/10/07 06:31:34;;;;;;;1.05;0.80;;;15.30;1.00;;;;;;5064170;28;20088;-80
2023/10/07 06:34:09;;;;;;;1.83;0.70;;;15.30;1.00;;;;;;5094398;28;20065;-80
2023/10/07 06:36:37;;;;;;;1.00;0.70;;;15.40;1.00;;;;;;5079127;28;20051;-80
2023/10/07 06:39:07;;;;;;;0.60;0.52;;;15.40;1.00;;;;;;5083594;28;20446;-80
2023/10/07 06:41:35;;;;;;;1.02;0.60;;;15.40;99.90;;;;;;5053573;28;20054;-80
2023/10/07 06:44:03;;;;;;;1.00;0.60;;;15.40;99.90;;;;;;5101364;28;20051;-80
2023/10/07 06:46:44;;;;;;;1.15;0.60;;;15.40;99.90;;;;;;5089522;28;20040;-80
2023/10/07 06:49:17;;;;;;;1.10;0.77;;;15.50;99.90;;;;;;5089709;28;20063;-80
2023/10/07 06:51:45;;;;;;;1.00;0.70;;;15.50;99.90;;;;;;5088202;28;20477;-80
2023/10/07 06:54:14;;;;;;;1.38;0.68;;;15.50;99.90;;;;;;5066399;28;20048;-80
2023/10/07 06:56:40;;;;;;;0.90;0.50;;;15.60;99.90;;;;;;5080925;28;20043;-80
2023/10/07 06:59:08;;;;;;;1.10;0.70;;;15.60;99.90;;;;;;5075187;28;20135;-82
2023/10/07 07:01:36;;;;;;;0.55;0.43;;;15.60;99.90;;;;;;5079029;28;20476;-83
2023/10/07 07:04:10;;;;;;;0.47;0.47;;;15.70;99.90;;;;;;5090935;28;20417;-83
2023/10/07 07:06:42;;;;;;;0.73;0.35;;;15.70;73.20;;;;;;5075590;28;20123;-83
2023/10/07 07:12:03;;;;;;;0.95;0.57;;;15.70;1.00;;;;;;5085832;28;20331;-84
2023/10/07 07:14:30;;;;;;;0.80;0.60;;;15.80;1.00;;;;;;5089273;28;20071;-83
2023/10/07 07:17:29;;;;;;;1.48;0.70;;;15.80;1.00;;;;;;5073743;28;20115;-83
2023/10/07 07:19:46;;;;;;;0.70;0.50;;;15.80;1.00;;;;;;5096623;28;20047;-83
2023/10/07 07:22:12;;;;;;;1.42;0.60;;;15.90;99.90;;;;;;5090446;28;20074;-79
2023/10/07 07:24:41;;;;;;;0.93;0.70;;;15.90;99.90;;;;;;5081746;28;20455;-77
2023/10/07 07:27:08;;;;;;;1.30;0.70;;;15.90;99.90;;;;;;5076117;28;20139;-76
2023/10/07 07:29:36;;;;;;;0.57;0.47;;;16.00;99.90;;;;;;5082972;28;20093;-77
2023/10/07 07:32:04;;;;;;;0.98;0.60;;;16.00;99.90;;;;;;5065802;28;20167;-83
2023/10/07 07:34:36;;;;;;;1.13;0.57;;;16.10;99.90;;;;;;5094460;28;20048;-83
2023/10/07 07:37:03;;;;;;;1.58;0.75;;;16.10;99.90;;;;;;5098944;28;20476;-83
2023/10/07 07:39:30;;;;;;;1.58;0.90;;;16.20;29.70;;;;;;5104612;28;20147;-83
2023/10/07 07:42:00;;;;;;;1.42;0.60;;;16.20;10.00;;;;;;5106556;28;20078;-83
2023/10/07 07:44:33;;;;;;;1.33;0.90;;;16.30;1.00;;;;;;5063784;28;20127;-83
2023/10/07 07:47:02;;;;;;;0.75;0.50;;;16.40;99.90;;;;;;5096023;28;20508;-83
2023/10/07 07:49:32;;;;;;;0.95;0.70;;;16.50;99.90;;;;;;5096624;28;20048;-84
2023/10/07 07:52:00;;;;;;;1.23;0.80;;;16.50;99.90;;;;;;5098208;28;20106;-82
2023/10/07 07:54:29;;;;;;;1.10;0.80;;;16.60;99.90;;;;;;5077635;28;20054;-83
2023/10/07 07:56:58;;;;;;;0.93;0.75;;;16.60;95.80;;;;;;5086465;28;20044;-84
2023/10/07 07:59:28;;;;;;;1.55;1.08;;;16.70;53.60;;;;;;5070658;28;20122;-83
2023/10/07 08:02:01;;;;;;;1.83;0.95;;;16.80;1.00;;;;;;5096338;28;20135;-83
2023/10/07 08:04:37;;;;;;;1.38;0.68;;;16.90;1.00;;;;;;5096601;28;20400;-84
2023/10/07 08:07:10;;;;;;;1.27;0.93;;;17.00;99.90;;;;;;5108450;28;20511;-84
2023/10/07 08:09:39;;;;;;;1.10;0.80;;;17.00;99.90;;;;;;5107371;28;20805;-84
2023/10/07 08:12:09;;;;;;;1.67;0.90;;;17.10;99.90;;;;;;5089498;28;20131;-84
2023/10/07 08:14:40;;;;;;;2.50;1.13;;;17.20;99.90;;;;;;5107695;28;20055;-84
2023/10/07 08:17:08;;;;;;;2.38;1.20;;;17.20;99.90;;;;;;5091915;28;20059;-84
2023/10/07 08:19:35;;;;;;;2.13;1.20;;;17.30;99.90;;;;;;5098307;28;20105;-83
2023/10/07 08:22:03;;;;;;;2.30;1.10;;;17.30;99.90;;;;;;5072578;28;20462;-84
2023/10/07 08:24:32;;;;;;;1.52;1.10;;;17.40;99.90;;;;;;5103679;27;20100;-84
2023/10/07 08:27:03;;;;;;;1.88;1.08;;;17.50;99.90;;;;;;5110649;27;20525;-83
2023/10/07 08:29:34;;;;;;;1.65;0.88;;;17.60;99.90;;;;;;5105257;27;20131;-84
2023/10/07 08:32:34;;;;;;;1.15;0.80;;;17.70;99.90;;;;;;5113546;27;20040;-84
2023/10/07 08:34:49;;;;;;;0.93;0.70;;;17.80;99.90;;;;;;5110025;27;20043;-84
2023/10/07 08:37:16;;;;;;;1.00;0.90;;;17.90;99.90;;;;;;5077444;28;20056;-84
2023/10/07 08:39:46;;;;;;;2.15;1.48;;;17.90;99.90;;;;;;5092447;28;20430;-85
2023/10/07 08:42:18;;;;;;;2.72;1.10;;;18.00;99.90;;;;;;5078616;28;20055;-84
2023/10/07 08:44:52;;;;;;;1.92;1.10;;;18.10;99.90;;;;;;5102091;28;20047;-79
2023/10/07 08:47:21;;;;;;;2.33;1.20;;;18.20;99.90;;;;;;5070193;28;20048;-84
2023/10/07 08:49:48;;;;;;;2.30;1.35;;;18.20;82.80;;;;;;5084844;28;20051;-83
2023/10/07 08:52:18;;;;;;;3.90;1.60;;;18.30;75.50;;;;;;5074813;28;20060;-82
2023/10/07 08:54:47;;;;;;;2.10;1.10;;;18.40;72.20;;;;;;5098029;28;20055;-84
2023/10/07 08:57:19;;;;;;;2.75;1.23;;;18.40;52.30;;;;;;5086377;28;20044;-85
2023/10/07 08:59:52;;;;;;;1.55;1.02;;;18.40;38.90;;;;;;5076403;28;20058;-83
2023/10/07 09:02:30;;;;;;;1.98;1.38;;;18.50;37.20;;;;;;5080769;28;20397;-83
2023/10/07 09:04:58;;;;;;;1.98;1.20;;;18.50;27.70;;;;;;5067292;28;20069;-83
2023/10/07 09:07:32;;;;;;;2.08;1.10;;;18.60;30.70;;;;;;5067016;28;20048;-84
2023/10/07 09:10:07;;;;;;;1.50;0.90;;;18.70;28.50;;;;;;5093253;28;20044;-83
2023/10/07 09:12:43;;;;;;;2.45;1.25;;;18.70;22.20;;;;;;5089294;28;20105;-81
2023/10/07 09:15:26;;;;;;;2.50;1.45;;;18.70;21.20;;;;;;5096139;28;20318;-84
2023/10/07 09:18:03;;;;;;;1.40;1.15;;;18.80;18.60;;;;;;5063205;28;20373;-84
2023/10/07 09:20:31;;;;;;;1.30;0.85;;;18.90;3.70;;;;;;5102625;28;20051;-83
2023/10/07 09:23:07;;;;;;;2.35;1.20;;;19.00;1.00;;;;;;5100111;28;20044;-85
2023/10/07 09:25:34;;;;;;;2.05;1.48;;;19.10;1.00;;;;;;5082693;28;20135;-84
2023/10/07 09:28:02;;;;;;;2.17;1.33;;;19.20;1.00;;;;;;5053080;28;20079;-85
2023/10/07 09:30:35;;;;;;;2.60;1.52;;;19.30;1.00;;;;;;5067305;28;20115;-83
2023/10/07 09:33:13;;;;;;;1.45;1.17;;;19.40;1.00;;;;;;5080028;28;20040;-83
2023/10/07 09:35:42;;;;;;;2.15;1.30;;;19.50;1.00;;;;;;5089979;28;20051;-83
2023/10/07 09:38:22;;;;;;;2.08;1.27;;;19.60;10.50;;;;;;5104848;28;20461;-84
2023/10/07 09:41:11;;;;;;;2.33;1.25;;;19.70;1.00;;;;;;5105633;28;20078;-84
2023/10/07 09:43:43;;;;;;;1.70;1.20;;;19.70;1.00;;;;;;5090119;28;20066;-84
2023/10/07 09:46:11;;;;;;;2.03;1.33;;;19.90;1.00;;;;;;5089003;28;20497;-84
2023/10/07 09:48:51;;;;;;;2.25;1.55;;;20.00;5.30;;;;;;5090898;28;20052;-84
2023/10/07 09:51:34;;;;;;;2.20;1.38;;;20.10;34.30;;;;;;5086968;28;20059;-84
2023/10/07 09:54:16;;;;;;;1.77;1.30;;;20.20;15.80;;;;;;5086024;28;20215;-84
2023/10/07 09:57:07;;;;;;;1.90;1.30;;;20.30;18.00;;;;;;5103065;28;20066;-84
2023/10/07 09:59:57;;;;;;;1.90;1.42;;;20.40;28.90;;;;;;5101792;28;20489;-85
2023/10/07 10:03:06;;;;;;;2.03;1.27;;;20.50;31.00;;;;;;5072225;28;20062;-85
2023/10/07 10:05:51;;;;;;;2.13;1.30;;;20.70;26.10;;;;;;5049526;28;20048;-85
2023/10/07 10:08:35;;;;;;;1.90;1.48;;;20.80;27.80;;;;;;5078523;28;20043;-84
2023/10/07 10:11:19;;;;;;;2.67;1.52;;;20.90;51.90;;;;;;5102673;28;20274;-85
2023/10/07 10:13:52;;;;;;;2.35;1.58;;;20.90;50.40;;;;;;5084802;28;20138;-85
2023/10/07 10:16:44;;;;;;;2.13;1.50;;;21.00;51.10;;;;;;5100877;28;20052;-85
2023/10/07 10:19:28;;;;;;;1.50;1.23;;;21.10;55.30;;;;;;5091821;28;20075;-85
2023/10/07 10:22:05;;;;;;;1.70;1.02;;;21.20;69.30;;;;;;5090832;28;20048;-85
2023/10/07 10:24:37;;;;;;;2.30;1.30;;;21.20;55.10;;;;;;5065789;28;20079;-85
2023/10/07 10:27:04;;;;;;;5.43;1.85;;;21.20;41.20;;;;;;5065003;28;20060;-85
2023/10/07 10:29:36;;;;;;;2.15;1.55;;;21.20;47.70;;;;;;5082385;28;20062;-85
2023/10/07 10:32:12;;;;;;;1.83;1.30;;;21.20;50.50;;;;;;5074914;28;20044;-85
2023/10/07 10:34:39;;;;;;;2.55;1.73;;;21.30;52.20;;;;;;5097007;28;20142;-85
2023/10/07 10:37:07;;;;;;;2.13;1.65;;;21.40;53.00;;;;;;5106107;28;20055;-84
2023/10/07 10:39:34;;;;;;;1.85;1.38;;;21.40;51.10;;;;;;5103311;28;20066;-84
2023/10/07 10:42:13;;;;;;;2.80;1.98;;;21.50;47.70;;;;;;5104302;28;20143;-85
2023/10/07 10:44:46;;;;;;;1.90;1.38;;;21.50;45.30;;;;;;5105241;28;20051;-85
2023/10/07 10:47:16;;;;;;;;;;;21.60;44.60;;;;;;5105937;28;20048;-85
2023/10/07 10:49:44;;;;;;;3.42;2.10;;;21.70;46.10;;;;;;5104615;28;20002;-85
2023/10/07 10:52:14;;;;;;;2.03;1.48;;;21.80;43.90;;;;;;5099766;28;20499;-83
2023/10/07 10:54:42;;;;;;;2.38;1.58;;;21.80;42.70;;;;;;5094473;28;20277;-84
2023/10/07 10:57:13;;;;;;;2.50;1.70;;;21.90;39.20;;;;;;5081165;28;20444;-84
2023/10/07 10:59:47;;;;;;;;;;;22.00;36.00;;;;;;5099623;28;20082;-85
2023/10/07 11:02:20;;;;;;;2.90;1.40;;;22.10;35.30;;;;;;5102111;28;19969;-85
2023/10/07 11:04:50;;;;;;;3.15;1.95;;;22.10;36.60;;;;;;5088125;28;20043;-85
2023/10/07 11:07:19;;;;;;;2.25;1.30;;;22.20;36.70;;;;;;5088379;28;20051;-85
2023/10/07 11:09:51;;;;;;;2.80;1.35;;;22.30;37.10;;;;;;5087437;28;20132;-86
2023/10/07 11:12:20;;;;;;;2.22;1.45;;;22.30;35.10;;;;;;5073459;28;20063;-85
2023/10/07 11:14:50;;;;;;;2.10;1.40;;;22.40;36.70;;;;;;5084618;28;20423;-85
2023/10/07 11:17:17;;;;;;;3.08;1.85;;;22.50;32.90;;;;;;5068238;28;20055;-85
2023/10/07 11:19:51;;;;;;;3.30;2.13;;;22.60;31.40;;;;;;5100004;28;20436;-84
2023/10/07 11:22:19;;;;;;;2.60;1.75;;;22.70;30.10;;;;;;5104325;28;20458;-85
2023/10/07 11:24:49;;;;;;;2.25;1.50;;;22.80;42.40;;;;;;5102534;28;20063;-85
2023/10/07 11:27:17;;;;;;;2.67;1.40;;;22.90;29.40;;;;;;5072161;28;20172;-85
2023/10/07 11:29:44;;;;;;;1.88;1.27;;;23.10;29.90;;;;;;5087895;28;20055;-85
2023/10/07 11:32:12;;;;;;;1.98;1.17;;;23.40;30.80;;;;;;5105044;28;20047;-85
2023/10/07 11:34:40;;;;;;;2.35;1.52;;;23.60;30.60;;;;;;5106269;28;20048;-85
2023/10/07 11:37:14;;;;;;;1.90;1.20;;;23.80;30.60;;;;;;5104535;28;20130;-85
2023/10/07 11:39:46;;;;;;;2.20;1.10;;;24.00;30.00;;;;;;5104248;28;20062;-85
2023/10/07 11:42:21;;;;;;;1.98;1.30;;;24.00;29.90;;;;;;5088110;28;20396;-85
2023/10/07 11:44:55;;;;;;;2.03;1.45;;;24.10;28.10;;;;;;5104262;28;20051;-85
2023/10/07 11:47:24;;;;;;;2.47;1.70;;;24.20;26.90;;;;;;5072919;28;20414;-85
2023/10/07 11:49:51;;;;;;;3.08;1.70;;;24.30;25.10;;;;;;5068482;28;20143;-85
2023/10/07 11:52:21;;;;;;;2.75;1.50;;;24.50;23.90;;;;;;5087240;28;20065;-85
2023/10/07 11:54:48;;;;;;;1.77;1.25;;;24.70;24.50;;;;;;5085872;28;20051;-85
2023/10/07 11:57:19;;;;;;;1.85;1.17;;;24.90;23.20;;;;;;5087535;28;20074;-85
2023/10/07 11:59:46;;;;;;;2.10;1.45;;;25.00;21.80;;;;;;5070443;28;20056;-86
2023/10/07 12:02:14;;;;;;;2.05;1.35;;;25.20;20.50;;;;;;5103834;28;20048;-85
2023/10/07 12:04:47;;;;;;;1.88;1.20;;;25.50;20.80;;;;;;5102803;28;20051;-85
2023/10/07 12:07:15;;;;;;;2.75;1.67;;;25.80;20.70;;;;;;5070755;28;20039;-85
2023/10/07 12:09:43;;;;;;;3.50;2.08;;;25.90;20.20;;;;;;5085855;28;20516;-86
2023/10/07 12:12:11;;;;;;;3.35;2.15;;;26.00;18.50;;;;;;5103826;28;20051;-85
2023/10/07 12:14:38;;;;;;;2.33;1.67;;;26.20;18.50;;;;;;5105528;28;20055;-87
2023/10/07 12:17:07;;;;;;;2.30;1.58;;;26.30;16.20;;;;;;5107565;28;20120;-86
2023/10/07 12:19:36;;;;;;;2.33;1.50;;;26.60;15.70;;;;;;5107389;28;20191;-87
2023/10/07 12:22:06;;;;;;;2.58;1.77;;;26.80;14.20;;;;;;5108592;28;20077;-86
2023/10/07 12:24:37;;;;;;;2.63;1.73;;;26.90;13.50;;;;;;5090064;28;20145;-86
2023/10/07 12:27:06;;;;;;;1.80;1.38;;;27.10;12.80;;;;;;5109500;28;20082;-86
2023/10/07 12:29:34;;;;;;;1.73;1.33;;;27.30;10.80;;;;;;5091197;28;20044;-86
2023/10/07 12:32:01;;;;;;;3.33;2.05;;;27.50;9.50;;;;;;5091029;28;20077;-86
2023/10/07 12:34:30;;;;;;;2.67;2.00;;;27.60;5.60;;;;;;5090933;28;20139;-87
2023/10/07 12:36:57;;;;;;;3.20;2.25;;;27.60;3.10;;;;;;5091543;28;20714;-86
2023/10/07 12:39:24;;;;;;;2.85;1.83;;;27.50;1.00;;;;;;5106869;28;20530;-86
2023/10/07 12:41:50;;;;;;;2.63;1.70;;;27.30;1.00;;;;;;5108845;28;20512;-86
2023/10/07 12:44:17;;;;;;;3.40;2.20;;;27.20;1.00;;;;;;5108317;28;20075;-86
2023/10/07 12:46:44;;;;;;;2.90;2.20;;;27.10;1.00;;;;;;5108231;28;20413;-86
2023/10/07 12:49:14;;;;;;;2.42;1.77;;;27.20;1.00;;;;;;5106198;28;20055;-86
2023/10/07 12:51:42;;;;;;;2.95;1.95;;;27.60;1.00;;;;;;5106393;28;20060;-86
2023/10/07 12:54:09;;;;;;;2.92;2.22;;;27.90;1.00;;;;;;5072354;28;20044;-86
2023/10/07 12:56:45;;;;;;;2.67;1.95;;;28.00;1.00;;;;;;5105999;28;20051;-86
2023/10/07 12:59:18;;;;;;;2.95;2.30;;;28.30;1.00;;;;;;5090338;28;20100;-86
2023/10/07 13:01:50;;;;;;;2.75;1.88;;;28.50;1.00;;;;;;5106781;28;20123;-86
2023/10/07 13:04:20;;;;;;;4.03;2.55;;;28.50;1.00;;;;;;5072037;28;20047;-86
2023/10/07 13:06:48;;;;;;;2.47;1.52;;;28.60;1.00;;;;;;5089717;28;20055;-86
2023/10/07 13:09:16;;;;;;;2.42;1.75;;;28.40;1.00;;;;;;5086780;28;20075;-86
2023/10/07 13:11:45;;;;;;;2.22;1.45;;;28.00;1.00;;;;;;5107727;27;20055;-86
2023/10/07 13:14:12;;;;;;;2.05;1.70;;;27.70;1.00;;;;;;5060270;28;20040;-86
2023/10/07 13:16:45;;;;;;;2.85;1.70;;;27.50;1.00;;;;;;5106091;28;20135;-85
2023/10/07 13:19:13;;;;;;;2.78;1.88;;;27.50;1.00;;;;;;5090063;28;20067;-86
2023/10/07 13:21:41;;;;;;;2.33;1.70;;;27.30;1.00;;;;;;5107418;28;20157;-86
2023/10/07 13:24:09;;;;;;;2.88;1.80;;;27.30;1.00;;;;;;5088561;28;20496;-86
2023/10/07 13:26:36;;;;;;;3.83;1.92;;;27.10;1.00;;;;;;5104880;28;20118;-86
2023/10/07 13:29:09;;;;;;;2.25;1.38;;;27.10;1.00;;;;;;5105836;28;20097;-86
2023/10/07 13:31:40;;;;;;;1.63;1.00;;;27.10;1.00;;;;;;5106740;28;20139;-86
2023/10/07 13:34:07;;;;;;;2.88;1.65;;;27.20;1.00;;;;;;5107267;28;20051;-86
2023/10/07 13:36:37;;;;;;;3.63;2.38;;;27.80;1.00;;;;;;5106976;28;20405;-85
2023/10/07 13:39:15;;;;;;;3.45;2.15;;;28.10;1.00;;;;;;5088843;28;20454;-86